createdAt,value
2022-09-07T00:00:44.363Z,0.00
2022-09-07T00:01:44.400Z,0.00
2022-09-07T00:02:44.514Z,0.00
2022-09-07T00:03:44.487Z,0.00
2022-09-07T00:04:44.578Z,0.00
2022-09-07T00:05:44.576Z,0.00
2022-09-07T00:06:44.624Z,0.00
2022-09-07T00:07:44.662Z,0.00
2022-09-07T00:08:44.714Z,0.00
2022-09-07T00:09:44.746Z,0.00
2022-09-07T00:10:44.786Z,0.00
2022-09-07T00:11:44.837Z,0.00
2022-09-07T00:12:44.887Z,0.00
2022-09-07T00:13:44.927Z,0.00
2022-09-07T00:14:44.978Z,0.00
2022-09-07T00:15:45.082Z,0.00
2022-09-07T00:16:45.038Z,0.00
2022-09-07T00:17:45.145Z,0.00
2022-09-07T00:18:46.217Z,0.00
2022-09-07T00:19:45.192Z,0.00
2022-09-07T00:20:45.230Z,0.00
2022-09-07T00:21:45.269Z,0.00
2022-09-07T00:22:45.311Z,0.00
2022-09-07T00:23:45.370Z,0.00
2022-09-07T00:24:45.424Z,0.00
2022-09-07T00:25:45.469Z,0.00
2022-09-07T00:26:45.515Z,0.00
2022-09-07T00:27:45.562Z,0.00
2022-09-07T00:28:45.634Z,0.00
2022-09-07T00:29:45.613Z,0.00
2022-09-07T00:30:45.653Z,0.00
2022-09-07T00:31:45.755Z,0.00
2022-09-07T00:32:45.724Z,0.00
2022-09-07T00:33:45.803Z,0.00
2022-09-07T00:34:45.834Z,0.00
2022-09-07T00:35:45.886Z,0.00
2022-09-07T00:36:45.979Z,0.00
2022-09-07T00:37:45.926Z,0.00
2022-09-07T00:38:45.989Z,0.00
2022-09-07T00:39:46.107Z,0.00
2022-09-07T00:40:46.058Z,0.00
2022-09-07T00:41:46.077Z,0.00
2022-09-07T00:42:46.088Z,0.00
2022-09-07T00:43:46.109Z,0.00
2022-09-07T00:44:46.189Z,0.00
2022-09-07T00:45:46.163Z,0.00
2022-09-07T00:46:46.263Z,0.00
2022-09-07T00:47:46.180Z,0.00
2022-09-07T00:48:46.169Z,0.00
2022-09-07T00:49:46.240Z,0.00
2022-09-07T00:50:46.291Z,0.00
2022-09-07T00:51:46.331Z,0.00
2022-09-07T00:52:46.457Z,0.00
2022-09-07T00:53:46.425Z,0.00
2022-09-07T00:54:46.452Z,0.00
2022-09-07T00:55:46.502Z,0.00
2022-09-07T00:56:46.543Z,0.00
2022-09-07T00:57:46.574Z,0.00
2022-09-07T00:58:46.575Z,0.00
2022-09-07T00:59:46.593Z,0.00
2022-09-07T01:00:46.645Z,0.00
2022-09-07T01:01:46.704Z,0.00
2022-09-07T01:02:46.952Z,0.00
2022-09-07T01:03:46.675Z,0.00
2022-09-07T01:04:46.726Z,0.00
2022-09-07T01:05:46.756Z,0.00
2022-09-07T01:06:46.777Z,0.00
2022-09-07T01:07:46.864Z,0.00
2022-09-07T01:08:46.920Z,0.00
2022-09-07T01:09:46.928Z,0.00
2022-09-07T01:10:46.948Z,0.00
2022-09-07T01:11:47.010Z,0.00
2022-09-07T01:12:46.998Z,0.00
2022-09-07T01:13:47.040Z,0.00
2022-09-07T01:14:47.090Z,0.00
2022-09-07T01:15:47.201Z,0.00
2022-09-07T01:16:47.160Z,0.00
2022-09-07T01:17:47.203Z,0.00
2022-09-07T01:18:47.240Z,0.00
2022-09-07T01:19:47.242Z,0.00
2022-09-07T01:20:47.322Z,0.00
2022-09-07T01:21:47.322Z,0.00
2022-09-07T01:22:47.333Z,0.00
2022-09-07T01:23:47.370Z,0.00
2022-09-07T01:24:47.415Z,0.00
2022-09-07T01:25:47.425Z,0.00
2022-09-07T01:26:47.405Z,0.00
2022-09-07T01:27:47.385Z,0.00
2022-09-07T01:28:47.394Z,0.00
2022-09-07T01:29:47.395Z,0.00
2022-09-07T01:30:47.528Z,0.00
2022-09-07T01:31:47.516Z,0.00
2022-09-07T01:32:47.576Z,0.00
2022-09-07T01:33:47.617Z,0.00
2022-09-07T01:34:47.678Z,0.00
2022-09-07T01:35:47.680Z,0.00
2022-09-07T01:36:47.732Z,0.00
2022-09-07T01:37:47.775Z,0.00
2022-09-07T01:38:47.778Z,0.00
2022-09-07T01:39:47.889Z,0.00
2022-09-07T01:40:47.850Z,0.00
2022-09-07T01:41:47.898Z,0.00
2022-09-07T01:42:47.911Z,0.00
2022-09-07T01:43:47.954Z,0.00
2022-09-07T01:44:47.992Z,0.00
2022-09-07T01:45:48.051Z,0.00
2022-09-07T01:46:48.145Z,0.00
2022-09-07T01:47:48.112Z,0.00
2022-09-07T01:48:48.172Z,0.00
2022-09-07T01:49:48.220Z,0.00
2022-09-07T01:50:48.264Z,0.00
2022-09-07T01:51:48.295Z,0.00
2022-09-07T01:52:48.315Z,0.00
2022-09-07T01:53:48.356Z,0.00
2022-09-07T01:54:48.376Z,0.00
2022-09-07T01:55:48.417Z,0.00
2022-09-07T01:56:48.406Z,0.00
2022-09-07T01:57:48.476Z,0.00
2022-09-07T01:58:48.509Z,0.00
2022-09-07T01:59:48.567Z,0.00
2022-09-07T02:00:48.589Z,0.00
2022-09-07T02:01:48.637Z,0.00
2022-09-07T02:02:48.811Z,0.00
2022-09-07T02:03:48.719Z,0.00
2022-09-07T02:04:48.693Z,0.00
2022-09-07T02:05:48.760Z,0.00
2022-09-07T02:06:48.771Z,0.00
2022-09-07T02:07:48.790Z,0.00
2022-09-07T02:08:48.871Z,0.00
2022-09-07T02:09:48.939Z,0.00
2022-09-07T02:10:48.972Z,0.00
2022-09-07T02:11:48.971Z,0.00
2022-09-07T02:12:49.032Z,0.00
2022-09-07T02:13:49.052Z,0.00
2022-09-07T02:14:52.483Z,0.00
2022-09-07T02:15:49.188Z,0.00
2022-09-07T02:16:49.164Z,0.00
2022-09-07T02:17:49.194Z,0.00
2022-09-07T02:18:49.265Z,0.00
2022-09-07T02:19:49.273Z,0.00
2022-09-07T02:20:49.264Z,0.00
2022-09-07T02:21:49.409Z,0.00
2022-09-07T02:22:49.325Z,0.00
2022-09-07T02:23:49.376Z,0.00
2022-09-07T02:24:49.446Z,0.00
2022-09-07T02:25:49.563Z,0.00
2022-09-07T02:26:49.557Z,0.00
2022-09-07T02:27:49.580Z,0.00
2022-09-07T02:28:49.662Z,0.00
2022-09-07T02:29:49.627Z,0.00
2022-09-07T02:30:49.726Z,0.00
2022-09-07T02:31:49.669Z,0.00
2022-09-07T02:32:49.722Z,0.00
2022-09-07T02:33:49.800Z,0.00
2022-09-07T02:34:49.850Z,0.00
2022-09-07T02:35:49.908Z,0.00
2022-09-07T02:36:49.952Z,0.00
2022-09-07T02:37:50.001Z,0.00
2022-09-07T02:38:50.071Z,0.00
2022-09-07T02:39:50.152Z,0.00
2022-09-07T02:40:50.171Z,0.00
2022-09-07T02:41:50.132Z,0.00
2022-09-07T02:42:50.181Z,0.00
2022-09-07T02:43:50.242Z,0.00
2022-09-07T02:44:50.293Z,0.00
2022-09-07T02:45:50.369Z,0.00
2022-09-07T02:46:50.354Z,0.00
2022-09-07T02:47:50.407Z,0.00
2022-09-07T02:48:50.455Z,0.00
2022-09-07T02:49:50.515Z,0.00
2022-09-07T02:50:50.570Z,0.00
2022-09-07T02:51:50.616Z,0.00
2022-09-07T02:52:50.666Z,0.00
2022-09-07T02:53:50.716Z,0.00
2022-09-07T02:54:50.777Z,0.00
2022-09-07T02:55:50.837Z,0.00
2022-09-07T02:56:50.878Z,0.00
2022-09-07T02:57:50.928Z,0.00
2022-09-07T02:58:50.968Z,0.00
2022-09-07T02:59:51.008Z,0.00
2022-09-07T03:00:51.057Z,0.00
2022-09-07T03:01:51.228Z,0.00
2022-09-07T03:02:51.181Z,0.00
2022-09-07T03:03:51.112Z,0.00
2022-09-07T03:04:51.153Z,0.00
2022-09-07T03:05:51.192Z,0.00
2022-09-07T03:06:51.240Z,0.00
2022-09-07T03:07:51.313Z,0.00
2022-09-07T03:08:52.142Z,0.00
2022-09-07T03:09:51.368Z,0.00
2022-09-07T03:10:51.402Z,0.00
2022-09-07T03:11:51.442Z,0.00
2022-09-07T03:12:51.484Z,0.00
2022-09-07T03:13:51.524Z,0.00
2022-09-07T03:14:51.585Z,0.00
2022-09-07T03:15:55.756Z,0.00
2022-09-07T03:16:51.708Z,0.00
2022-09-07T03:17:51.734Z,0.00
2022-09-07T03:18:51.777Z,0.00
2022-09-07T03:19:51.843Z,0.00
2022-09-07T03:20:51.885Z,0.00
2022-09-07T03:21:51.916Z,0.00
2022-09-07T03:22:51.968Z,0.00
2022-09-07T03:23:52.083Z,0.00
2022-09-07T03:24:52.036Z,0.00
2022-09-07T03:25:52.087Z,0.00
2022-09-07T03:26:52.138Z,0.00
2022-09-07T03:27:52.178Z,0.00
2022-09-07T03:28:52.228Z,0.00
2022-09-07T03:29:52.259Z,0.00
2022-09-07T03:30:52.371Z,0.00
2022-09-07T03:31:52.340Z,0.00
2022-09-07T03:32:52.381Z,0.00
2022-09-07T03:33:52.420Z,0.00
2022-09-07T03:34:52.481Z,0.00
2022-09-07T03:35:52.551Z,0.00
2022-09-07T03:36:52.602Z,0.00
2022-09-07T03:37:52.632Z,0.00
2022-09-07T03:38:52.682Z,0.00
2022-09-07T03:39:52.764Z,0.00
2022-09-07T03:40:52.742Z,0.00
2022-09-07T03:41:52.793Z,0.00
2022-09-07T03:42:52.834Z,0.00
2022-09-07T03:43:52.886Z,0.00
2022-09-07T03:44:52.945Z,0.00
2022-09-07T03:45:53.026Z,0.00
2022-09-07T03:46:53.055Z,0.00
2022-09-07T03:47:53.095Z,0.00
2022-09-07T03:48:53.147Z,0.00
2022-09-07T03:49:53.190Z,0.00
2022-09-07T03:50:53.236Z,0.00
2022-09-07T03:51:53.276Z,0.00
2022-09-07T03:52:53.329Z,0.00
2022-09-07T03:53:53.367Z,0.00
2022-09-07T03:54:53.407Z,0.00
2022-09-07T03:55:53.469Z,0.00
2022-09-07T03:56:53.520Z,0.00
2022-09-07T03:57:53.579Z,0.00
2022-09-07T03:58:53.626Z,0.00
2022-09-07T03:59:53.673Z,0.00
2022-09-07T04:00:53.709Z,0.00
2022-09-07T04:01:53.810Z,0.00
2022-09-07T04:02:53.867Z,0.00
2022-09-07T04:03:53.821Z,0.00
2022-09-07T04:04:53.879Z,0.00
2022-09-07T04:05:53.941Z,0.00
2022-09-07T04:06:53.982Z,0.00
2022-09-07T04:07:54.044Z,0.00
2022-09-07T04:08:54.102Z,0.00
2022-09-07T04:09:54.150Z,0.00
2022-09-07T04:10:54.212Z,0.00
2022-09-07T04:11:54.264Z,0.00
2022-09-07T04:12:54.320Z,0.00
2022-09-07T04:13:54.394Z,0.00
2022-09-07T04:14:54.362Z,0.00
2022-09-07T04:15:54.435Z,0.00
2022-09-07T04:16:54.495Z,0.00
2022-09-07T04:17:54.475Z,0.00
2022-09-07T04:18:54.535Z,0.00
2022-09-07T04:19:54.589Z,0.00
2022-09-07T04:20:54.679Z,0.00
2022-09-07T04:21:54.647Z,0.00
2022-09-07T04:22:54.724Z,0.00
2022-09-07T04:23:54.687Z,0.00
2022-09-07T04:24:54.738Z,0.00
2022-09-07T04:25:54.788Z,0.00
2022-09-07T04:26:54.876Z,0.00
2022-09-07T04:27:54.918Z,0.00
2022-09-07T04:28:54.968Z,0.00
2022-09-07T04:29:55.024Z,0.00
2022-09-07T04:30:55.140Z,0.00
2022-09-07T04:31:55.059Z,0.00
2022-09-07T04:32:55.109Z,0.00
2022-09-07T04:33:55.131Z,0.00
2022-09-07T04:34:55.119Z,0.00
2022-09-07T04:35:55.111Z,0.00
2022-09-07T04:36:55.102Z,0.00
2022-09-07T04:37:55.102Z,0.00
2022-09-07T04:38:55.112Z,0.00
2022-09-07T04:39:55.160Z,0.00
2022-09-07T04:40:55.123Z,0.00
2022-09-07T04:41:55.123Z,0.00
2022-09-07T04:42:55.127Z,0.00
2022-09-07T04:43:55.123Z,0.00
2022-09-07T04:44:55.114Z,0.00
2022-09-07T04:45:55.150Z,0.00
2022-09-07T04:46:55.124Z,0.00
2022-09-07T04:47:55.116Z,0.00
2022-09-07T04:48:55.135Z,0.00
2022-09-07T04:49:55.136Z,0.00
2022-09-07T04:50:55.147Z,0.00
2022-09-07T04:51:55.118Z,0.00
2022-09-07T04:52:55.191Z,5.62
2022-09-07T04:53:55.248Z,5.62
2022-09-07T04:54:55.227Z,5.62
2022-09-07T04:55:55.297Z,5.62
2022-09-07T04:56:55.380Z,5.62
2022-09-07T04:57:55.358Z,5.62
2022-09-07T04:58:55.434Z,5.62
2022-09-07T04:59:55.517Z,5.62
2022-09-07T05:00:55.533Z,5.62
2022-09-07T05:01:55.557Z,5.62
2022-09-07T05:02:55.510Z,11.25
2022-09-07T05:03:55.511Z,11.25
2022-09-07T05:04:58.377Z,11.25
2022-09-07T05:05:55.531Z,11.25
2022-09-07T05:06:55.561Z,16.88
2022-09-07T05:07:55.594Z,16.88
2022-09-07T05:08:55.602Z,22.50
2022-09-07T05:09:55.586Z,22.50
2022-09-07T05:10:55.586Z,28.12
2022-09-07T05:11:55.623Z,28.12
2022-09-07T05:12:55.643Z,33.75
2022-09-07T05:13:55.633Z,33.75
2022-09-07T05:14:55.654Z,39.38
2022-09-07T05:15:55.690Z,45.00
2022-09-07T05:16:55.721Z,45.00
2022-09-07T05:17:55.695Z,50.62
2022-09-07T05:18:55.717Z,56.25
2022-09-07T05:19:55.765Z,61.88
2022-09-07T05:20:55.807Z,61.88
2022-09-07T05:21:55.826Z,67.50
2022-09-07T05:22:55.867Z,73.12
2022-09-07T05:23:55.919Z,78.75
2022-09-07T05:24:55.948Z,84.38
2022-09-07T05:25:56.008Z,84.38
2022-09-07T05:26:56.060Z,84.38
2022-09-07T05:27:56.088Z,90.00
2022-09-07T05:30:04.509Z,95.62
2022-09-07T05:31:56.201Z,106.88
2022-09-07T05:32:56.201Z,112.50
2022-09-07T05:34:56.280Z,118.12
2022-09-07T05:35:56.341Z,123.75
2022-09-07T05:36:56.424Z,129.38
2022-09-07T05:37:56.432Z,129.38
2022-09-07T05:38:56.442Z,129.38
2022-09-07T05:39:56.533Z,129.38
2022-09-07T05:40:56.483Z,129.38
2022-09-07T05:41:56.533Z,129.38
2022-09-07T05:42:56.538Z,129.38
2022-09-07T05:44:56.596Z,135.00
2022-09-07T05:45:56.716Z,135.00
2022-09-07T05:46:56.685Z,135.00
2022-09-07T05:47:56.725Z,135.00
2022-09-07T05:48:56.795Z,140.62
2022-09-07T05:49:57.340Z,146.25
2022-09-07T05:50:56.846Z,146.25
2022-09-07T05:51:56.903Z,140.62
2022-09-07T05:52:56.917Z,140.62
2022-09-07T05:53:56.897Z,135.00
2022-09-07T05:55:07.750Z,140.62
2022-09-07T05:55:56.908Z,140.62
2022-09-07T05:56:56.998Z,146.25
2022-09-07T05:57:57.010Z,157.50
2022-09-07T05:58:56.999Z,168.75
2022-09-07T05:59:56.999Z,174.38
2022-09-07T06:00:57.031Z,185.62
2022-09-07T06:01:57.106Z,196.88
2022-09-07T06:02:57.099Z,196.88
2022-09-07T06:03:57.051Z,202.50
2022-09-07T06:04:57.050Z,208.12
2022-09-07T06:05:57.042Z,213.75
2022-09-07T06:07:57.042Z,270.00
2022-09-07T06:08:57.144Z,298.12
2022-09-07T06:10:57.192Z,303.75
2022-09-07T06:11:57.184Z,326.25
2022-09-07T06:12:57.184Z,410.62
2022-09-07T06:13:57.201Z,500.62
2022-09-07T06:14:57.209Z,433.12
2022-09-07T06:15:57.247Z,416.25
2022-09-07T06:16:57.345Z,388.12
2022-09-07T06:17:57.307Z,393.75
2022-09-07T06:18:57.316Z,405.00
2022-09-07T06:19:57.361Z,466.88
2022-09-07T06:20:57.367Z,483.75
2022-09-07T06:21:57.377Z,461.25
2022-09-07T06:22:57.378Z,506.25
2022-09-07T06:23:57.398Z,517.50
2022-09-07T06:24:57.419Z,646.88
2022-09-07T06:25:57.418Z,658.12
2022-09-07T06:26:57.420Z,742.50
2022-09-07T06:27:57.514Z,635.62
2022-09-07T06:28:58.093Z,652.50
2022-09-07T06:29:57.440Z,641.25
2022-09-07T06:30:57.440Z,843.75
2022-09-07T06:32:57.473Z,1535.62
2022-09-07T06:33:57.526Z,1136.25
2022-09-07T06:34:57.566Z,1400.62
2022-09-07T06:35:57.615Z,1209.38
2022-09-07T06:36:57.623Z,916.88
2022-09-07T06:37:57.684Z,1141.88
2022-09-07T06:38:57.748Z,1192.50
2022-09-07T06:39:57.811Z,1170.00
2022-09-07T06:42:58.167Z,1147.50
2022-09-07T06:43:58.046Z,933.75
2022-09-07T06:44:58.061Z,1051.88
2022-09-07T06:47:58.180Z,1091.25
2022-09-07T06:48:58.158Z,1119.38
2022-09-07T06:49:58.188Z,1344.38
2022-09-07T06:50:58.231Z,1805.62
2022-09-07T06:51:58.295Z,2013.75
2022-09-07T06:55:58.329Z,1923.75
2022-09-07T06:56:58.331Z,1833.75
2022-09-07T06:57:58.331Z,1890.00
2022-09-07T06:58:58.355Z,1102.50
2022-09-07T06:59:58.432Z,1248.75
2022-09-07T07:00:58.455Z,1479.38
2022-09-07T07:01:58.415Z,1451.25
2022-09-07T07:02:58.583Z,1473.75
2022-09-07T07:03:58.506Z,1518.75
2022-09-07T07:04:58.686Z,1800.00
2022-09-07T07:05:58.661Z,2188.12
2022-09-07T07:06:58.676Z,2227.50
2022-09-07T07:07:58.668Z,2036.25
2022-09-07T07:08:58.774Z,2041.88
2022-09-07T07:09:58.809Z,1861.88
2022-09-07T07:10:58.911Z,2025.00
2022-09-07T07:11:58.887Z,2345.62
2022-09-07T07:12:58.925Z,1974.38
2022-09-07T07:13:58.891Z,2053.12
2022-09-07T07:14:58.919Z,2098.12
2022-09-07T07:15:58.986Z,2154.38
2022-09-07T07:16:59.002Z,1985.62
2022-09-07T07:18:05.387Z,2266.88
2022-09-07T07:18:59.010Z,2064.38
2022-09-07T07:19:59.024Z,2576.25
2022-09-07T07:20:59.026Z,2368.12
2022-09-07T07:22:14.351Z,1996.88
2022-09-07T07:22:59.142Z,1923.75
2022-09-07T07:23:59.147Z,1715.62
2022-09-07T07:24:59.141Z,2047.50
2022-09-07T07:25:59.156Z,2002.50
2022-09-07T07:26:59.156Z,2115.00
2022-09-07T07:29:59.307Z,2148.75
2022-09-07T07:30:59.277Z,2092.50
2022-09-07T07:31:59.265Z,1968.75
2022-09-07T07:32:59.308Z,1732.50
2022-09-07T07:33:59.550Z,1676.25
2022-09-07T07:34:59.379Z,1575.00
2022-09-07T07:35:59.400Z,1608.75
2022-09-07T07:36:59.400Z,1620.00
2022-09-07T07:39:00.218Z,1552.50
2022-09-07T07:40:15.789Z,1665.00
2022-09-07T07:42:03.109Z,1743.75
2022-09-07T07:42:59.625Z,1901.25
2022-09-07T07:44:00.518Z,1850.62
2022-09-07T07:46:01.274Z,1856.25
2022-09-07T07:46:59.837Z,2171.25
2022-09-07T07:47:59.772Z,2233.12
2022-09-07T07:48:59.896Z,2272.50
2022-09-07T07:51:02.663Z,2064.38
2022-09-07T07:54:00.334Z,1147.50
2022-09-07T07:55:00.299Z,939.38
2022-09-07T07:56:00.079Z,1215.00
2022-09-07T07:57:00.090Z,1192.50
2022-09-07T07:58:00.042Z,2233.12
2022-09-07T07:59:00.045Z,1231.88
2022-09-07T08:00:00.070Z,2182.50
2022-09-07T08:01:00.196Z,2407.50
2022-09-07T08:02:00.319Z,2643.75
2022-09-07T08:03:00.223Z,2666.25
2022-09-07T08:04:00.291Z,2401.88
2022-09-07T08:05:00.269Z,2143.12
2022-09-07T08:06:00.333Z,2064.38
2022-09-07T08:07:00.359Z,2289.38
2022-09-07T08:08:00.353Z,2396.25
2022-09-07T08:09:00.357Z,2587.50
2022-09-07T08:10:00.418Z,2986.88
2022-09-07T08:11:00.449Z,911.25
2022-09-07T08:12:00.490Z,922.50
2022-09-07T08:13:00.571Z,1023.75
2022-09-07T08:14:00.510Z,1260.00
2022-09-07T08:15:00.542Z,2525.62
2022-09-07T08:16:00.614Z,3020.62
2022-09-07T08:17:00.676Z,3043.12
2022-09-07T08:18:00.713Z,3031.88
2022-09-07T08:19:00.743Z,3206.25
2022-09-07T08:20:00.732Z,2435.62
2022-09-07T08:21:00.745Z,2446.88
2022-09-07T08:22:00.744Z,2891.25
2022-09-07T08:23:00.788Z,1816.88
2022-09-07T08:24:00.812Z,2480.62
2022-09-07T08:25:00.773Z,2666.25
2022-09-07T08:26:00.785Z,1305.00
2022-09-07T08:27:00.856Z,1586.25
2022-09-07T08:28:00.919Z,1625.62
2022-09-07T08:29:00.907Z,2778.75
2022-09-07T08:30:00.938Z,1552.50
2022-09-07T08:31:00.991Z,2154.38
2022-09-07T08:32:01.042Z,1546.88
2022-09-07T08:33:01.060Z,945.00
2022-09-07T08:34:01.780Z,815.62
2022-09-07T08:35:01.122Z,832.50
2022-09-07T08:36:01.089Z,798.75
2022-09-07T08:37:01.141Z,860.62
2022-09-07T08:38:01.185Z,849.38
2022-09-07T08:39:01.166Z,871.88
2022-09-07T08:40:01.307Z,967.50
2022-09-07T08:41:01.290Z,1068.75
2022-09-07T08:42:01.324Z,1445.62
2022-09-07T08:43:01.354Z,1164.38
2022-09-07T08:44:01.425Z,2227.50
2022-09-07T08:45:01.446Z,1243.12
2022-09-07T08:46:01.477Z,2784.38
2022-09-07T08:47:01.594Z,1603.12
2022-09-07T08:48:01.549Z,1310.62
2022-09-07T08:49:01.595Z,2002.50
2022-09-07T08:50:01.697Z,1147.50
2022-09-07T08:51:01.590Z,1350.00
2022-09-07T08:52:01.649Z,1119.38
2022-09-07T08:53:01.691Z,1074.38
2022-09-07T08:54:01.710Z,894.38
2022-09-07T08:55:01.761Z,1096.88
2022-09-07T08:56:01.835Z,1833.75
2022-09-07T08:58:01.903Z,2716.88
2022-09-07T08:59:01.963Z,2767.50
2022-09-07T09:00:02.064Z,2722.50
2022-09-07T09:04:18.704Z,2570.62
2022-09-07T09:06:02.412Z,2655.00
2022-09-07T09:06:11.117Z,2396.25
2022-09-07T09:07:02.451Z,2137.50
2022-09-07T09:08:02.341Z,2750.62
2022-09-07T09:09:02.318Z,1833.75
2022-09-07T09:10:02.348Z,2058.75
2022-09-07T09:11:02.391Z,2148.75
2022-09-07T09:12:02.459Z,1698.75
2022-09-07T09:13:02.429Z,2570.62
2022-09-07T09:14:02.482Z,855.00
2022-09-07T09:15:02.506Z,922.50
2022-09-07T09:16:02.557Z,2081.25
2022-09-07T09:17:02.553Z,1468.12
2022-09-07T09:18:02.554Z,1293.75
2022-09-07T09:19:03.496Z,2036.25
2022-09-07T09:20:02.614Z,1012.50
2022-09-07T09:21:02.614Z,1816.88
2022-09-07T09:22:02.634Z,776.25
2022-09-07T09:23:02.685Z,956.25
2022-09-07T09:24:02.685Z,838.12
2022-09-07T09:25:02.758Z,855.00
2022-09-07T09:26:02.754Z,1237.50
2022-09-07T09:27:02.767Z,855.00
2022-09-07T09:28:02.767Z,838.12
2022-09-07T09:29:02.768Z,753.75
2022-09-07T09:30:02.826Z,1760.62
2022-09-07T09:31:02.907Z,2272.50
2022-09-07T09:32:02.853Z,2221.88
2022-09-07T09:33:02.876Z,2188.12
2022-09-07T09:34:02.881Z,1963.12
2022-09-07T09:35:02.872Z,2092.50
2022-09-07T09:36:02.946Z,2160.00
2022-09-07T09:37:03.010Z,2064.38
2022-09-07T09:38:03.004Z,877.50
2022-09-07T09:39:02.993Z,686.25
2022-09-07T09:40:03.315Z,663.75
2022-09-07T09:41:04.003Z,641.25
2022-09-07T09:42:03.106Z,624.38
2022-09-07T09:43:03.155Z,618.75
2022-09-07T09:44:03.345Z,1338.75
2022-09-07T09:45:03.246Z,793.12
2022-09-07T09:46:18.941Z,1676.25
2022-09-07T09:48:03.372Z,1828.12
2022-09-07T09:49:03.360Z,1732.50
2022-09-07T09:50:03.359Z,1642.50
2022-09-07T09:53:03.410Z,1260.00
2022-09-07T09:54:03.421Z,1856.25
2022-09-07T09:55:30.140Z,1845.00
2022-09-07T09:56:03.484Z,967.50
2022-09-07T09:57:03.546Z,613.12
2022-09-07T09:59:05.308Z,776.25
2022-09-07T10:00:08.526Z,843.75
2022-09-07T10:04:06.338Z,534.38
2022-09-07T10:05:03.766Z,500.62
2022-09-07T10:06:03.721Z,500.62
2022-09-07T10:07:03.770Z,489.38
2022-09-07T10:08:03.804Z,483.75
2022-09-07T10:09:03.819Z,1102.50
2022-09-07T10:10:03.892Z,1175.62
2022-09-07T10:11:03.919Z,1186.88
2022-09-07T10:12:05.597Z,1288.12
2022-09-07T10:13:03.960Z,646.88
2022-09-07T10:14:04.031Z,573.75
2022-09-07T10:15:04.017Z,765.00
2022-09-07T10:16:04.091Z,1299.38
2022-09-07T10:17:04.092Z,1507.50
2022-09-07T10:18:04.141Z,686.25
2022-09-07T10:19:04.184Z,1113.75
2022-09-07T10:20:04.224Z,1141.88
2022-09-07T10:21:04.234Z,1220.62
2022-09-07T10:22:04.225Z,1260.00
2022-09-07T10:23:04.245Z,1243.12
2022-09-07T10:24:04.250Z,1186.88
2022-09-07T10:25:04.236Z,1260.00
2022-09-07T10:26:04.237Z,1181.25
2022-09-07T10:27:04.316Z,742.50
2022-09-07T10:28:04.380Z,551.25
2022-09-07T10:29:07.971Z,528.75
2022-09-07T10:30:06.834Z,511.88
2022-09-07T10:31:04.526Z,500.62
2022-09-07T10:32:04.500Z,483.75
2022-09-07T10:33:04.551Z,540.00
2022-09-07T10:35:05.328Z,641.25
2022-09-07T10:36:04.630Z,984.38
2022-09-07T10:37:04.644Z,534.38
2022-09-07T10:38:04.712Z,500.62
2022-09-07T10:39:04.754Z,472.50
2022-09-07T10:40:04.882Z,438.75
2022-09-07T10:41:04.875Z,410.62
2022-09-07T10:42:04.915Z,393.75
2022-09-07T10:43:21.068Z,382.50
2022-09-07T10:44:05.235Z,371.25
2022-09-07T10:45:04.997Z,365.62
2022-09-07T10:46:05.108Z,360.00
2022-09-07T10:47:05.115Z,376.88
2022-09-07T10:48:05.037Z,528.75
2022-09-07T10:49:05.081Z,635.62
2022-09-07T10:51:13.441Z,832.50
2022-09-07T10:52:05.149Z,540.00
2022-09-07T10:53:23.489Z,590.62
2022-09-07T10:55:05.202Z,883.12
2022-09-07T10:56:05.241Z,950.62
2022-09-07T10:57:05.353Z,916.88
2022-09-07T10:58:05.334Z,900.00
2022-09-07T10:59:05.385Z,877.50
2022-09-07T11:00:09.166Z,922.50
2022-09-07T11:01:05.605Z,736.88
2022-09-07T11:02:05.504Z,810.00
2022-09-07T11:04:05.633Z,804.38
2022-09-07T11:05:05.584Z,798.75
2022-09-07T11:06:06.265Z,720.00
2022-09-07T11:07:05.619Z,815.62
2022-09-07T11:08:05.697Z,810.00
2022-09-07T11:09:21.307Z,810.00
2022-09-07T11:10:05.687Z,838.12
2022-09-07T11:11:05.935Z,838.12
2022-09-07T11:12:05.817Z,832.50
2022-09-07T11:13:05.991Z,815.62
2022-09-07T11:14:12.985Z,810.00
2022-09-07T11:15:05.871Z,798.75
2022-09-07T11:16:06.343Z,776.25
2022-09-07T11:17:05.980Z,759.38
2022-09-07T11:18:05.959Z,742.50
2022-09-07T11:20:06.047Z,680.62
2022-09-07T11:21:06.004Z,540.00
2022-09-07T11:22:06.083Z,562.50
2022-09-07T11:23:06.104Z,528.75
2022-09-07T11:24:06.155Z,540.00
2022-09-07T11:26:06.226Z,652.50
2022-09-07T11:27:06.276Z,669.38
2022-09-07T11:28:06.336Z,686.25
2022-09-07T11:30:06.466Z,691.88
2022-09-07T11:31:06.513Z,703.12
2022-09-07T11:32:06.489Z,697.50
2022-09-07T11:33:06.542Z,691.88
2022-09-07T11:35:06.601Z,736.88
2022-09-07T11:36:11.421Z,753.75
2022-09-07T11:37:06.693Z,776.25
2022-09-07T11:38:06.664Z,787.50
2022-09-07T11:39:06.712Z,781.88
2022-09-07T11:40:06.897Z,759.38
2022-09-07T11:41:06.876Z,742.50
2022-09-07T11:43:11.186Z,742.50
2022-09-07T11:44:06.915Z,686.25
2022-09-07T11:45:06.897Z,663.75
2022-09-07T11:46:07.008Z,624.38
2022-09-07T11:47:06.965Z,669.38
2022-09-07T11:48:06.947Z,669.38
2022-09-07T11:49:06.982Z,658.12
2022-09-07T11:50:06.936Z,646.88
2022-09-07T11:51:06.998Z,613.12
2022-09-07T11:52:07.068Z,635.62
2022-09-07T11:53:07.079Z,641.25
2022-09-07T11:54:07.117Z,641.25
2022-09-07T11:55:07.071Z,646.88
2022-09-07T11:56:07.111Z,545.62
2022-09-07T11:57:07.182Z,652.50
2022-09-07T11:58:07.283Z,658.12
2022-09-07T11:59:07.213Z,675.00
2022-09-07T12:00:07.287Z,658.12
2022-09-07T12:01:07.234Z,669.38
2022-09-07T12:02:07.344Z,646.88
2022-09-07T12:03:07.355Z,618.75
2022-09-07T12:04:09.247Z,579.38
2022-09-07T12:05:07.306Z,618.75
2022-09-07T12:06:07.336Z,613.12
2022-09-07T12:07:07.327Z,646.88
2022-09-07T12:08:07.360Z,658.12
2022-09-07T12:09:07.378Z,652.50
2022-09-07T12:10:07.418Z,658.12
2022-09-07T12:11:07.459Z,663.75
2022-09-07T12:12:07.473Z,691.88
2022-09-07T12:13:07.529Z,742.50
2022-09-07T12:14:07.511Z,826.88
2022-09-07T12:15:07.531Z,945.00
2022-09-07T12:16:07.637Z,1018.12
2022-09-07T12:17:07.622Z,995.62
2022-09-07T12:18:07.682Z,933.75
2022-09-07T12:19:07.682Z,815.62
2022-09-07T12:20:07.686Z,832.50
2022-09-07T12:21:07.683Z,793.12
2022-09-07T12:22:07.715Z,770.62
2022-09-07T12:23:07.714Z,742.50
2022-09-07T12:24:07.725Z,691.88
2022-09-07T12:25:07.756Z,669.38
2022-09-07T12:26:08.647Z,630.00
2022-09-07T12:27:07.866Z,601.88
2022-09-07T12:28:07.808Z,579.38
2022-09-07T12:29:07.817Z,596.25
2022-09-07T12:30:07.817Z,579.38
2022-09-07T12:31:07.940Z,556.88
2022-09-07T12:32:53.435Z,556.88
2022-09-07T12:33:08.032Z,556.88
2022-09-07T12:34:08.060Z,540.00
2022-09-07T12:35:08.061Z,517.50
2022-09-07T12:36:08.078Z,523.12
2022-09-07T12:37:12.300Z,523.12
2022-09-07T12:38:08.108Z,511.88
2022-09-07T12:39:08.194Z,489.38
2022-09-07T12:40:08.231Z,506.25
2022-09-07T12:41:08.174Z,495.00
2022-09-07T12:43:10.023Z,495.00
2022-09-07T12:44:08.207Z,506.25
2022-09-07T12:45:08.307Z,500.62
2022-09-07T12:46:08.341Z,472.50
2022-09-07T12:47:08.506Z,489.38
2022-09-07T12:48:08.357Z,495.00
2022-09-07T12:49:08.356Z,483.75
2022-09-07T12:50:10.143Z,483.75
2022-09-07T12:51:08.380Z,478.12
2022-09-07T12:52:15.303Z,506.25
2022-09-07T12:53:09.392Z,511.88
2022-09-07T12:54:08.480Z,511.88
2022-09-07T12:55:27.171Z,545.62
2022-09-07T12:56:16.305Z,556.88
2022-09-07T12:58:08.673Z,545.62
2022-09-07T12:59:16.069Z,556.88
2022-09-07T13:00:08.775Z,556.88
2022-09-07T13:01:09.470Z,540.00
2022-09-07T13:02:08.830Z,534.38
2022-09-07T13:03:49.397Z,528.75
2022-09-07T13:04:08.745Z,523.12
2022-09-07T13:05:08.793Z,517.50
2022-09-07T13:06:09.738Z,365.62
2022-09-07T13:07:08.847Z,343.12
2022-09-07T13:08:09.543Z,343.12
2022-09-07T13:09:08.920Z,337.50
2022-09-07T13:10:08.899Z,331.88
2022-09-07T13:11:08.969Z,337.50
2022-09-07T13:12:09.224Z,348.75
2022-09-07T13:13:08.982Z,483.75
2022-09-07T13:14:09.824Z,489.38
2022-09-07T13:15:14.610Z,500.62
2022-09-07T13:16:09.161Z,500.62
2022-09-07T13:17:16.696Z,506.25
2022-09-07T13:18:09.142Z,517.50
2022-09-07T13:19:09.242Z,534.38
2022-09-07T13:20:09.233Z,540.00
2022-09-07T13:21:09.210Z,528.75
2022-09-07T13:22:09.943Z,523.12
2022-09-07T13:23:09.247Z,506.25
2022-09-07T13:25:09.229Z,466.88
2022-09-07T13:26:09.244Z,455.62
2022-09-07T13:27:09.256Z,450.00
2022-09-07T13:28:09.299Z,438.75
2022-09-07T13:29:09.318Z,450.00